sensor_id;sensor_type;location;lat;lon;timestamp;pressure;altitude;pressure_sealevel;temperature;humidity
54262;BME280;40174;52.364;6.452;2022-12-07T00:01:45;101427.56;;;3.06;100.00
54262;BME280;40174;52.364;6.452;2022-12-07T00:04:13;101424.16;;;3.04;100.00
54262;BME280;40174;52.364;6.452;2022-12-07T00:06:43;101432.03;;;3.02;100.00
54262;BME280;40174;52.364;6.452;2022-12-07T00:09:12;101421.00;;;2.96;100.00
54262;BME280;40174;52.364;6.452;2022-12-07T00:11:39;101424.66;;;2.91;100.00
54262;BME280;40174;52.364;6.452;2022-12-07T00:14:10;101418.69;;;2.88;100.00
54262;BME280;40174;52.364;6.452;2022-12-07T00:16:36;101427.41;;;2.87;100.00
54262;BME280;40174;52.364;6.452;2022-12-07T00:19:04;101421.47;;;2.83;100.00
54262;BME280;40174;52.364;6.452;2022-12-07T00:21:32;101420.69;;;2.81;100.00
54262;BME280;40174;52.364;6.452;2022-12-07T00:24:01;101413.91;;;2.76;100.00
54262;BME280;40174;52.364;6.452;2022-12-07T00:26:29;101415.81;;;2.72;100.00
54262;BME280;40174;52.364;6.452;2022-12-07T00:29:00;101413.31;;;2.69;100.00
54262;BME280;40174;52.364;6.452;2022-12-07T00:31:29;101408.16;;;2.67;100.00
54262;BME280;40174;52.364;6.452;2022-12-07T00:33:56;101408.22;;;2.66;100.00
54262;BME280;40174;52.364;6.452;2022-12-07T00:36:24;101405.72;;;2.63;100.00
54262;BME280;40174;52.364;6.452;2022-12-07T00:38:51;101394.50;;;2.61;100.00
54262;BME280;40174;52.364;6.452;2022-12-07T00:41:21;101402.28;;;2.62;100.00
54262;BME280;40174;52.364;6.452;2022-12-07T00:43:49;101411.75;;;2.65;100.00
54262;BME280;40174;52.364;6.452;2022-12-07T00:46:16;101402.38;;;2.59;100.00
54262;BME280;40174;52.364;6.452;2022-12-07T00:48:44;101399.06;;;2.56;100.00
54262;BME280;40174;52.364;6.452;2022-12-07T00:51:11;101405.13;;;2.56;100.00
54262;BME280;40174;52.364;6.452;2022-12-07T00:53:39;101398.13;;;2.57;100.00
54262;BME280;40174;52.364;6.452;2022-12-07T00:56:06;101399.06;;;2.56;100.00
54262;BME280;40174;52.364;6.452;2022-12-07T00:58:34;101402.69;;;2.52;100.00
54262;BME280;40174;52.364;6.452;2022-12-07T01:01:01;101400.91;;;2.52;100.00
54262;BME280;40174;52.364;6.452;2022-12-07T01:03:28;101400.25;;;2.47;100.00
54262;BME280;40174;52.364;6.452;2022-12-07T01:05:55;101393.38;;;2.44;100.00
54262;BME280;40174;52.364;6.452;2022-12-07T01:08:23;101393.47;;;2.41;100.00
54262;BME280;40174;52.364;6.452;2022-12-07T01:10:57;101392.59;;;2.42;100.00
54262;BME280;40174;52.364;6.452;2022-12-07T01:13:24;101389.19;;;2.40;100.00
54262;BME280;40174;52.364;6.452;2022-12-07T01:15:56;101388.44;;;2.37;100.00
54262;BME280;40174;52.364;6.452;2022-12-07T01:18:23;101399.78;;;2.36;100.00
54262;BME280;40174;52.364;6.452;2022-12-07T01:20:57;101394.66;;;2.33;100.00
54262;BME280;40174;52.364;6.452;2022-12-07T01:23:24;101392.19;;;2.29;100.00
54262;BME280;40174;52.364;6.452;2022-12-07T01:25:54;101393.94;;;2.29;100.00
54262;BME280;40174;52.364;6.452;2022-12-07T01:28:21;101391.44;;;2.26;100.00
54262;BME280;40174;52.364;6.452;2022-12-07T01:30:56;101393.38;;;2.21;100.00
54262;BME280;40174;52.364;6.452;2022-12-07T01:33:23;101389.16;;;2.17;100.00
54262;BME280;40174;52.364;6.452;2022-12-07T01:35:49;101396.97;;;2.17;100.00
54262;BME280;40174;52.364;6.452;2022-12-07T01:38:16;101390.09;;;2.16;100.00
54262;BME280;40174;52.364;6.452;2022-12-07T01:40:42;101398.06;;;2.11;100.00
54262;BME280;40174;52.364;6.452;2022-12-07T01:43:15;101401.53;;;2.12;100.00
54262;BME280;40174;52.364;6.452;2022-12-07T01:45:43;101406.75;;;2.12;100.00
54262;BME280;40174;52.364;6.452;2022-12-07T01:48:14;101400.78;;;2.08;100.00
54262;BME280;40174;52.364;6.452;2022-12-07T01:50:43;101401.66;;;2.08;100.00
54262;BME280;40174;52.364;6.452;2022-12-07T01:53:12;101403.53;;;2.03;100.00
54262;BME280;40174;52.364;6.452;2022-12-07T01:55:42;101400.09;;;2.03;100.00
54262;BME280;40174;52.364;6.452;2022-12-07T01:58:11;101399.25;;;2.02;100.00
54262;BME280;40174;52.364;6.452;2022-12-07T02:00:38;101399.28;;;2.01;100.00
54262;BME280;40174;52.364;6.452;2022-12-07T02:03:08;101391.50;;;1.99;100.00
54262;BME280;40174;52.364;6.452;2022-12-07T02:05:40;101402.03;;;1.98;100.00
54262;BME280;40174;52.364;6.452;2022-12-07T02:08:08;101396.00;;;1.96;100.00
54262;BME280;40174;52.364;6.452;2022-12-07T02:10:36;101400.38;;;1.95;100.00
54262;BME280;40174;52.364;6.452;2022-12-07T02:13:05;101393.41;;;1.96;100.00
54262;BME280;40174;52.364;6.452;2022-12-07T02:15:44;101386.38;;;1.98;100.00
54262;BME280;40174;52.364;6.452;2022-12-07T02:18:22;101387.34;;;1.95;100.00
54262;BME280;40174;52.364;6.452;2022-12-07T02:20:58;101385.63;;;1.94;100.00
54262;BME280;40174;52.364;6.452;2022-12-07T02:24:18;101392.47;;;1.97;100.00
54262;BME280;40174;52.364;6.452;2022-12-07T02:29:55;101395.88;;;1.99;100.00
54262;BME280;40174;52.364;6.452;2022-12-07T02:32:27;101390.72;;;1.97;100.00
54262;BME280;40174;52.364;6.452;2022-12-07T02:34:59;101388.19;;;1.96;100.00
54262;BME280;40174;52.364;6.452;2022-12-07T02:37:34;101391.75;;;1.93;100.00
54262;BME280;40174;52.364;6.452;2022-12-07T02:40:04;101401.38;;;1.91;100.00
54262;BME280;40174;52.364;6.452;2022-12-07T02:42:37;101388.44;;;1.88;100.00
54262;BME280;40174;52.364;6.452;2022-12-07T02:45:08;101390.16;;;1.89;100.00
54262;BME280;40174;52.364;6.452;2022-12-07T02:47:37;101391.84;;;1.90;100.00
54262;BME280;40174;52.364;6.452;2022-12-07T02:50:06;101385.03;;;1.86;100.00
54262;BME280;40174;52.364;6.452;2022-12-07T02:52:33;101379.94;;;1.83;100.00
54262;BME280;40174;52.364;6.452;2022-12-07T02:55:00;101379.81;;;1.86;100.00
54262;BME280;40174;52.364;6.452;2022-12-07T02:57:41;101386.69;;;1.89;100.00
54262;BME280;40174;52.364;6.452;2022-12-07T03:00:16;101385.84;;;1.88;100.00
54262;BME280;40174;52.364;6.452;2022-12-07T03:02:51;101394.63;;;1.85;100.00
54262;BME280;40174;52.364;6.452;2022-12-07T03:05:46;101384.19;;;1.85;100.00
54262;BME280;40174;52.364;6.452;2022-12-07T03:08:24;101389.41;;;1.85;100.00
54262;BME280;40174;52.364;6.452;2022-12-07T03:10:59;101395.47;;;1.86;100.00
54262;BME280;40174;52.364;6.452;2022-12-07T03:13:30;101394.63;;;1.85;100.00
54262;BME280;40174;52.364;6.452;2022-12-07T03:16:05;101398.94;;;1.86;100.00
54262;BME280;40174;52.364;6.452;2022-12-07T03:18:40;101391.00;;;1.90;100.00
54262;BME280;40174;52.364;6.452;2022-12-07T03:21:11;101397.94;;;1.91;100.00
54262;BME280;40174;52.364;6.452;2022-12-07T03:23:42;101387.44;;;1.92;100.00
54262;BME280;40174;52.364;6.452;2022-12-07T03:26:12;101386.59;;;1.92;100.00
54262;BME280;40174;52.364;6.452;2022-12-07T03:28:44;101380.44;;;1.93;100.00
54262;BME280;40174;52.364;6.452;2022-12-07T03:31:17;101364.94;;;1.90;100.00
54262;BME280;40174;52.364;6.452;2022-12-07T03:33:49;101370.03;;;1.93;100.00
54262;BME280;40174;52.364;6.452;2022-12-07T03:36:21;101367.41;;;1.93;100.00
54262;BME280;40174;52.364;6.452;2022-12-07T03:38:54;101367.50;;;1.91;100.00
54262;BME280;40174;52.364;6.452;2022-12-07T03:41:25;101358.81;;;1.91;100.00
54262;BME280;40174;52.364;6.452;2022-12-07T03:43:54;101360.50;;;1.92;100.00
54262;BME280;40174;52.364;6.452;2022-12-07T03:46:28;101361.44;;;1.91;100.00
54262;BME280;40174;52.364;6.452;2022-12-07T03:49:00;101373.56;;;1.92;100.00
54262;BME280;40174;52.364;6.452;2022-12-07T03:51:38;101379.56;;;1.94;100.00
54262;BME280;40174;52.364;6.452;2022-12-07T03:54:10;101363.78;;;1.97;100.00
54262;BME280;40174;52.364;6.452;2022-12-07T03:56:40;101362.00;;;1.99;100.00
54262;BME280;40174;52.364;6.452;2022-12-07T03:59:08;101367.16;;;2.00;100.00
54262;BME280;40174;52.364;6.452;2022-12-07T04:01:38;101369.84;;;1.97;100.00
54262;BME280;40174;52.364;6.452;2022-12-07T04:04:04;101370.72;;;1.98;100.00
54262;BME280;40174;52.364;6.452;2022-12-07T04:06:31;101365.44;;;1.99;100.00
54262;BME280;40174;52.364;6.452;2022-12-07T04:08:59;101359.50;;;1.96;100.00
54262;BME280;40174;52.364;6.452;2022-12-07T04:11:25;101355.31;;;1.92;100.00
54262;BME280;40174;52.364;6.452;2022-12-07T04:13:52;101356.22;;;1.91;100.00
54262;BME280;40174;52.364;6.452;2022-12-07T04:16:38;101353.66;;;1.89;100.00
54262;BME280;40174;52.364;6.452;2022-12-07T04:19:04;101358.13;;;1.85;100.00
54262;BME280;40174;52.364;6.452;2022-12-07T04:21:31;101351.22;;;1.84;100.00
54262;BME280;40174;52.364;6.452;2022-12-07T04:23:59;101349.56;;;1.82;100.00
54262;BME280;40174;52.364;6.452;2022-12-07T04:26:26;101346.25;;;1.77;100.00
54262;BME280;40174;52.364;6.452;2022-12-07T04:28:53;101358.44;;;1.76;100.00
54262;BME280;40174;52.364;6.452;2022-12-07T04:31:19;101358.56;;;1.73;100.00
54262;BME280;40174;52.364;6.452;2022-12-07T04:33:48;101355.13;;;1.73;100.00
54262;BME280;40174;52.364;6.452;2022-12-07T04:36:15;101353.41;;;1.72;100.00
54262;BME280;40174;52.364;6.452;2022-12-07T04:38:41;101349.91;;;1.73;100.00
54262;BME280;40174;52.364;6.452;2022-12-07T04:41:09;101349.91;;;1.73;100.00
54262;BME280;40174;52.364;6.452;2022-12-07T04:43:36;101343.88;;;1.71;100.00
54262;BME280;40174;52.364;6.452;2022-12-07T04:46:03;101353.44;;;1.70;100.00
54262;BME280;40174;52.364;6.452;2022-12-07T04:48:30;101341.38;;;1.67;100.00
54262;BME280;40174;52.364;6.452;2022-12-07T04:50:58;101340.47;;;1.69;100.00
54262;BME280;40174;52.364;6.452;2022-12-07T04:53:25;101349.16;;;1.69;100.00
54262;BME280;40174;52.364;6.452;2022-12-07T04:55:51;101351.88;;;1.66;100.00
54262;BME280;40174;52.364;6.452;2022-12-07T04:58:18;101350.94;;;1.67;100.00
54262;BME280;40174;52.364;6.452;2022-12-07T05:00:45;101351.78;;;1.67;100.00
54262;BME280;40174;52.364;6.452;2022-12-07T05:03:11;101337.13;;;1.65;100.00
54262;BME280;40174;52.364;6.452;2022-12-07T05:05:40;101344.13;;;1.63;100.00
54262;BME280;40174;52.364;6.452;2022-12-07T05:08:09;101343.47;;;1.58;100.00
54262;BME280;40174;52.364;6.452;2022-12-07T05:10:35;101340.97;;;1.55;100.00
54262;BME280;40174;52.364;6.452;2022-12-07T05:13:04;101328.88;;;1.52;100.00
54262;BME280;40174;52.364;6.452;2022-12-07T05:15:31;101341.09;;;1.50;100.00
54262;BME280;40174;52.364;6.452;2022-12-07T05:17:58;101346.25;;;1.52;100.00
54262;BME280;40174;52.364;6.452;2022-12-07T05:20:25;101343.81;;;1.47;100.00
54262;BME280;40174;52.364;6.452;2022-12-07T05:22:52;101342.19;;;1.44;100.00
54262;BME280;40174;52.364;6.452;2022-12-07T05:25:20;101342.22;;;1.43;100.00
54262;BME280;40174;52.364;6.452;2022-12-07T05:27:46;101344.03;;;1.41;100.00
54262;BME280;40174;52.364;6.452;2022-12-07T05:30:13;101353.63;;;1.39;100.00
54262;BME280;40174;52.364;6.452;2022-12-07T05:32:40;101351.84;;;1.41;100.00
54262;BME280;40174;52.364;6.452;2022-12-07T05:35:07;101359.56;;;1.44;100.00
54262;BME280;40174;52.364;6.452;2022-12-07T05:37:34;101355.19;;;1.44;100.00
54262;BME280;40174;52.364;6.452;2022-12-07T05:40:01;101366.41;;;1.47;100.00
54262;BME280;40174;52.364;6.452;2022-12-07T05:42:29;101358.56;;;1.48;100.00
54262;BME280;40174;52.364;6.452;2022-12-07T05:44:55;101363.00;;;1.44;100.00
54262;BME280;40174;52.364;6.452;2022-12-07T05:47:22;101354.25;;;1.47;100.00
54262;BME280;40174;52.364;6.452;2022-12-07T05:49:49;101351.59;;;1.49;100.00
54262;BME280;40174;52.364;6.452;2022-12-07T05:52:16;101350.75;;;1.48;100.00
54262;BME280;40174;52.364;6.452;2022-12-07T05:54:42;101341.16;;;1.49;100.00
54262;BME280;40174;52.364;6.452;2022-12-07T05:57:09;101347.22;;;1.49;100.00
54262;BME280;40174;52.364;6.452;2022-12-07T05:59:37;101341.09;;;1.50;100.00
54262;BME280;40174;52.364;6.452;2022-12-07T06:02:05;101343.78;;;1.49;100.00
54262;BME280;40174;52.364;6.452;2022-12-07T06:04:35;101342.13;;;1.46;100.00
54262;BME280;40174;52.364;6.452;2022-12-07T06:07:04;101339.53;;;1.46;100.00
54262;BME280;40174;52.364;6.452;2022-12-07T06:09:31;101331.78;;;1.43;100.00
54262;BME280;40174;52.364;6.452;2022-12-07T06:11:58;101334.47;;;1.41;100.00
54262;BME280;40174;52.364;6.452;2022-12-07T06:14:44;101337.25;;;1.37;100.00
54262;BME280;40174;52.364;6.452;2022-12-07T06:17:11;101339.03;;;1.35;100.00
54262;BME280;40174;52.364;6.452;2022-12-07T06:19:38;101334.84;;;1.31;100.00
54262;BME280;40174;52.364;6.452;2022-12-07T06:22:05;101338.31;;;1.30;100.00
54262;BME280;40174;52.364;6.452;2022-12-07T06:24:33;101333.34;;;1.23;100.00
54262;BME280;40174;52.364;6.452;2022-12-07T06:27:00;101330.75;;;1.23;100.00
54262;BME280;40174;52.364;6.452;2022-12-07T06:29:26;101319.56;;;1.20;100.00
54262;BME280;40174;52.364;6.452;2022-12-07T06:31:55;101334.41;;;1.16;100.00
54262;BME280;40174;52.364;6.452;2022-12-07T06:34:22;101331.00;;;1.14;100.00
54262;BME280;40174;52.364;6.452;2022-12-07T06:36:49;101327.63;;;1.12;100.00
54262;BME280;40174;52.364;6.452;2022-12-07T06:39:19;101341.44;;;1.14;100.00
54262;BME280;40174;52.364;6.452;2022-12-07T06:41:46;101338.81;;;1.14;100.00
54262;BME280;40174;52.364;6.452;2022-12-07T06:44:12;101337.94;;;1.15;100.00
54262;BME280;40174;52.364;6.452;2022-12-07T06:46:39;101338.06;;;1.12;100.00
54262;BME280;40174;52.364;6.452;2022-12-07T06:49:07;101340.66;;;1.12;100.00
54262;BME280;40174;52.364;6.452;2022-12-07T06:51:34;101343.34;;;1.09;100.00
54262;BME280;40174;52.364;6.452;2022-12-07T06:54:02;101343.25;;;1.12;100.00
54262;BME280;40174;52.364;6.452;2022-12-07T06:56:28;101350.03;;;1.16;100.00
54262;BME280;40174;52.364;6.452;2022-12-07T06:58:55;101348.31;;;1.17;100.00
54262;BME280;40174;52.364;6.452;2022-12-07T07:01:22;101346.44;;;1.20;100.00
54262;BME280;40174;52.364;6.452;2022-12-07T07:03:49;101345.50;;;1.23;100.00
54262;BME280;40174;52.364;6.452;2022-12-07T07:06:17;101360.13;;;1.27;100.00
54262;BME280;40174;52.364;6.452;2022-12-07T07:08:44;101349.66;;;1.29;100.00
54262;BME280;40174;52.364;6.452;2022-12-07T07:11:11;101359.97;;;1.32;100.00
54262;BME280;40174;52.364;6.452;2022-12-07T07:13:38;101363.31;;;1.35;100.00
54262;BME280;40174;52.364;6.452;2022-12-07T07:16:05;101360.69;;;1.37;100.00
54262;BME280;40174;52.364;6.452;2022-12-07T07:18:35;101361.44;;;1.39;100.00
54262;BME280;40174;52.364;6.452;2022-12-07T07:21:02;101366.66;;;1.39;100.00
54262;BME280;40174;52.364;6.452;2022-12-07T07:23:31;101362.25;;;1.41;100.00
54262;BME280;40174;52.364;6.452;2022-12-07T07:25:57;101357.84;;;1.43;100.00
54262;BME280;40174;52.364;6.452;2022-12-07T07:28:24;101365.75;;;1.41;100.00
54262;BME280;40174;52.364;6.452;2022-12-07T07:30:51;101358.75;;;1.42;100.00
54262;BME280;40174;52.364;6.452;2022-12-07T07:33:18;101360.41;;;1.44;100.00
54262;BME280;40174;52.364;6.452;2022-12-07T07:35:44;101360.41;;;1.44;100.00
54262;BME280;40174;52.364;6.452;2022-12-07T07:38:11;101362.09;;;1.45;100.00
54262;BME280;40174;52.364;6.452;2022-12-07T07:40:40;101356.16;;;1.42;100.00
54262;BME280;40174;52.364;6.452;2022-12-07T07:43:07;101361.38;;;1.42;100.00
54262;BME280;40174;52.364;6.452;2022-12-07T07:45:34;101362.31;;;1.39;100.00
54262;BME280;40174;52.364;6.452;2022-12-07T07:48:00;101364.00;;;1.40;100.00
54262;BME280;40174;52.364;6.452;2022-12-07T07:50:27;101365.78;;;1.40;100.00
54262;BME280;40174;52.364;6.452;2022-12-07T07:52:54;101367.56;;;1.38;100.00
54262;BME280;40174;52.364;6.452;2022-12-07T07:55:20;101367.56;;;1.38;100.00
54262;BME280;40174;52.364;6.452;2022-12-07T07:57:48;101367.56;;;1.38;100.00
54262;BME280;40174;52.364;6.452;2022-12-07T08:00:16;101368.53;;;1.35;100.00
54262;BME280;40174;52.364;6.452;2022-12-07T08:02:45;101368.53;;;1.35;100.00
54262;BME280;40174;52.364;6.452;2022-12-07T08:05:16;101370.28;;;1.35;100.00
54262;BME280;40174;52.364;6.452;2022-12-07T08:07:45;101371.97;;;1.36;100.00
54262;BME280;40174;52.364;6.452;2022-12-07T08:10:13;101367.63;;;1.36;100.00
54262;BME280;40174;52.364;6.452;2022-12-07T08:12:41;101372.78;;;1.38;100.00
54262;BME280;40174;52.364;6.452;2022-12-07T08:15:25;101373.72;;;1.37;100.00
54262;BME280;40174;52.364;6.452;2022-12-07T08:17:51;101375.41;;;1.38;100.00
54262;BME280;40174;52.364;6.452;2022-12-07T08:20:18;101371.78;;;1.42;100.00
54262;BME280;40174;52.364;6.452;2022-12-07T08:22:44;101381.28;;;1.43;100.00
54262;BME280;40174;52.364;6.452;2022-12-07T08:25:11;101380.28;;;1.47;100.00
54262;BME280;40174;52.364;6.452;2022-12-07T08:27:38;101376.00;;;1.46;100.00
54262;BME280;40174;52.364;6.452;2022-12-07T08:30:05;101377.56;;;1.50;100.00
54262;BME280;40174;52.364;6.452;2022-12-07T08:32:37;101387.88;;;1.55;100.00
54262;BME280;40174;52.364;6.452;2022-12-07T08:35:04;101382.59;;;1.56;100.00
54262;BME280;40174;52.364;6.452;2022-12-07T08:37:31;101391.19;;;1.58;100.00
54262;BME280;40174;52.364;6.452;2022-12-07T08:39:58;101389.44;;;1.59;100.00
54262;BME280;40174;52.364;6.452;2022-12-07T08:42:24;101395.47;;;1.61;100.00
54262;BME280;40174;52.364;6.452;2022-12-07T08:44:55;101393.66;;;1.63;100.00
54262;BME280;40174;52.364;6.452;2022-12-07T08:47:21;101401.44;;;1.64;100.00
54262;BME280;40174;52.364;6.452;2022-12-07T08:49:51;101390.09;;;1.65;100.00
54262;BME280;40174;52.364;6.452;2022-12-07T08:52:19;101387.47;;;1.65;100.00
54262;BME280;40174;52.364;6.452;2022-12-07T08:54:45;101390.03;;;1.67;100.00
54262;BME280;40174;52.364;6.452;2022-12-07T08:57:12;101387.41;;;1.69;100.00
54262;BME280;40174;52.364;6.452;2022-12-07T08:59:39;101382.09;;;1.70;100.00
54262;BME280;40174;52.364;6.452;2022-12-07T09:02:06;101384.72;;;1.70;100.00
54262;BME280;40174;52.364;6.452;2022-12-07T09:04:33;101379.47;;;1.72;100.00
54262;BME280;40174;52.364;6.452;2022-12-07T09:07:01;101373.34;;;1.73;100.00
54262;BME280;40174;52.364;6.452;2022-12-07T09:09:27;101377.59;;;1.75;100.00
54262;BME280;40174;52.364;6.452;2022-12-07T09:11:54;101373.13;;;1.79;100.00
54262;BME280;40174;52.364;6.452;2022-12-07T09:14:21;101377.31;;;1.83;100.00
54262;BME280;40174;52.364;6.452;2022-12-07T09:16:47;101372.97;;;1.83;100.00
54262;BME280;40174;52.364;6.452;2022-12-07T09:19:14;101369.50;;;1.83;100.00
54262;BME280;40174;52.364;6.452;2022-12-07T09:21:40;101366.06;;;1.82;100.00
54262;BME280;40174;52.364;6.452;2022-12-07T09:24:08;101366.78;;;1.86;100.00
54262;BME280;40174;52.364;6.452;2022-12-07T09:26:35;101376.38;;;1.85;100.00
54262;BME280;40174;52.364;6.452;2022-12-07T09:29:06;101371.94;;;1.87;100.00
54262;BME280;40174;52.364;6.452;2022-12-07T09:31:32;101373.56;;;1.92;100.00
54262;BME280;40174;52.364;6.452;2022-12-07T09:34:00;101383.97;;;1.92;100.00
54262;BME280;40174;52.364;6.452;2022-12-07T09:36:27;101381.25;;;1.95;100.00
54262;BME280;40174;52.364;6.452;2022-12-07T09:38:54;101389.78;;;2.00;100.00
54262;BME280;40174;52.364;6.452;2022-12-07T09:41:24;101392.38;;;2.00;100.00
54262;BME280;40174;52.364;6.452;2022-12-07T09:43:52;101389.78;;;2.00;100.00
54262;BME280;40174;52.364;6.452;2022-12-07T09:46:20;101388.75;;;2.04;100.00
54262;BME280;40174;52.364;6.452;2022-12-07T09:48:48;101384.28;;;2.07;100.00
54262;BME280;40174;52.364;6.452;2022-12-07T09:51:17;101378.91;;;2.12;100.00
54262;BME280;40174;52.364;6.452;2022-12-07T09:53:45;101385.91;;;2.10;100.00
54262;BME280;40174;52.364;6.452;2022-12-07T09:56:17;101383.31;;;2.10;100.00
54262;BME280;40174;52.364;6.452;2022-12-07T09:58:47;101383.31;;;2.10;100.00
54262;BME280;40174;52.364;6.452;2022-12-07T10:01:17;101378.84;;;2.14;100.00
54262;BME280;40174;52.364;6.452;2022-12-07T10:03:49;101376.13;;;2.17;100.00
54262;BME280;40174;52.364;6.452;2022-12-07T10:06:16;101372.53;;;2.19;100.00
54262;BME280;40174;52.364;6.452;2022-12-07T10:08:46;101380.28;;;2.22;100.00
54262;BME280;40174;52.364;6.452;2022-12-07T10:11:16;101367.91;;;2.27;100.00
54262;BME280;40174;52.364;6.452;2022-12-07T10:13:44;101361.59;;;2.33;100.00
54262;BME280;40174;52.364;6.452;2022-12-07T10:16:35;101357.91;;;2.39;100.00
54262;BME280;40174;52.364;6.452;2022-12-07T10:19:18;101364.59;;;2.46;100.00
54262;BME280;40174;52.364;6.452;2022-12-07T10:22:00;101362.84;;;2.46;100.00
54262;BME280;40174;52.364;6.452;2022-12-07T10:24:27;101353.09;;;2.52;100.00
54262;BME280;40174;52.364;6.452;2022-12-07T10:26:54;101354.81;;;2.51;100.00
54262;BME280;40174;52.364;6.452;2022-12-07T10:29:23;101345.97;;;2.55;100.00
54262;BME280;40174;52.364;6.452;2022-12-07T10:31:53;101349.28;;;2.60;100.00
54262;BME280;40174;52.364;6.452;2022-12-07T10:34:23;101353.34;;;2.67;100.00
54262;BME280;40174;52.364;6.452;2022-12-07T10:36:51;101350.44;;;2.75;100.00
54262;BME280;40174;52.364;6.452;2022-12-07T10:39:20;101346.00;;;2.77;100.00
54262;BME280;40174;52.364;6.452;2022-12-07T10:41:54;101347.25;;;2.89;100.00
54262;BME280;40174;52.364;6.452;2022-12-07T10:44:23;101340.22;;;2.91;100.00
54262;BME280;40174;52.364;6.452;2022-12-07T10:47:07;101336.53;;;2.97;100.00
54262;BME280;40174;52.364;6.452;2022-12-07T10:50:01;101344.03;;;3.04;100.00
54262;BME280;40174;52.364;6.452;2022-12-07T10:52:39;101327.34;;;3.08;100.00
54262;BME280;40174;52.364;6.452;2022-12-07T10:55:18;101329.06;;;3.09;100.00
54262;BME280;40174;52.364;6.452;2022-12-07T10:58:17;101330.53;;;3.15;100.00
54262;BME280;40174;52.364;6.452;2022-12-07T11:00:55;101333.81;;;3.20;100.00
54262;BME280;40174;52.364;6.452;2022-12-07T11:03:36;101324.03;;;3.25;100.00
54262;BME280;40174;52.364;6.452;2022-12-07T11:06:13;101325.59;;;3.29;100.00
54262;BME280;40174;52.364;6.452;2022-12-07T11:08:56;101317.53;;;3.34;100.00
54262;BME280;40174;52.364;6.452;2022-12-07T11:11:33;101309.53;;;3.39;100.00
54262;BME280;40174;52.364;6.452;2022-12-07T11:14:08;101316.31;;;3.43;100.00
54262;BME280;40174;52.364;6.452;2022-12-07T11:16:47;101310.97;;;3.46;100.00
54262;BME280;40174;52.364;6.452;2022-12-07T11:19:28;101309.94;;;3.50;100.00
54262;BME280;40174;52.364;6.452;2022-12-07T11:22:01;101305.34;;;3.55;100.00
54262;BME280;40174;52.364;6.452;2022-12-07T11:24:37;101306.13;;;3.57;100.00
54262;BME280;40174;52.364;6.452;2022-12-07T11:27:11;101305.78;;;3.65;100.00
54262;BME280;40174;52.364;6.452;2022-12-07T11:30:00;101302.72;;;3.75;100.00
54262;BME280;40174;52.364;6.452;2022-12-07T11:32:48;101302.25;;;3.86;100.00
54262;BME280;40174;52.364;6.452;2022-12-07T11:35:24;101295.44;;;4.01;100.00
54262;BME280;40174;52.364;6.452;2022-12-07T11:37:59;101293.97;;;4.14;100.00
54262;BME280;40174;52.364;6.452;2022-12-07T11:40:30;101283.06;;;4.24;100.00
54262;BME280;40174;52.364;6.452;2022-12-07T11:43:04;101289.66;;;4.32;100.00
54262;BME280;40174;52.364;6.452;2022-12-07T11:45:33;101283.91;;;4.43;100.00
54262;BME280;40174;52.364;6.452;2022-12-07T11:48:02;101273.00;;;4.52;100.00
54262;BME280;40174;52.364;6.452;2022-12-07T11:50:36;101269.88;;;4.63;100.00
54262;BME280;40174;52.364;6.452;2022-12-07T11:53:09;101273.75;;;4.73;100.00
54262;BME280;40174;52.364;6.452;2022-12-07T11:55:42;101276.00;;;4.81;100.00
54262;BME280;40174;52.364;6.452;2022-12-07T11:58:35;101275.47;;;4.92;100.00
54262;BME280;40174;52.364;6.452;2022-12-07T12:01:14;101267.69;;;5.08;100.00
54262;BME280;40174;52.364;6.452;2022-12-07T12:03:44;101268.16;;;5.16;100.00
54262;BME280;40174;52.364;6.452;2022-12-07T12:06:13;101263.47;;;5.23;100.00
54262;BME280;40174;52.364;6.452;2022-12-07T12:08:43;101268.13;;;5.33;100.00
54262;BME280;40174;52.364;6.452;2022-12-07T12:11:24;101263.88;;;5.31;100.00
54262;BME280;40174;52.364;6.452;2022-12-07T12:14:10;101264.53;;;5.36;100.00
54262;BME280;40174;52.364;6.452;2022-12-07T12:16:51;101268.53;;;5.43;100.00
54262;BME280;40174;52.364;6.452;2022-12-07T12:19:27;101264.28;;;5.40;100.00
54262;BME280;40174;52.364;6.452;2022-12-07T12:22:06;101263.59;;;5.37;100.00
54262;BME280;40174;52.364;6.452;2022-12-07T12:24:37;101264.34;;;5.39;100.00
54262;BME280;40174;52.364;6.452;2022-12-07T12:27:08;101256.66;;;5.36;100.00
54262;BME280;40174;52.364;6.452;2022-12-07T12:29:39;101251.63;;;5.31;100.00
54262;BME280;40174;52.364;6.452;2022-12-07T12:32:13;101243.88;;;5.30;100.00
54262;BME280;40174;52.364;6.452;2022-12-07T12:34:42;101245.78;;;5.26;100.00
54262;BME280;40174;52.364;6.452;2022-12-07T12:37:41;101242.09;;;5.30;100.00
54262;BME280;40174;52.364;6.452;2022-12-07T12:40:40;101233.28;;;5.31;100.00
54262;BME280;40174;52.364;6.452;2022-12-07T12:49:34;101234.78;;;5.86;100.00
54262;BME280;40174;52.364;6.452;2022-12-07T12:55:19;101237.97;;;5.75;100.00
54262;BME280;40174;52.364;6.452;2022-12-07T12:57:48;101237.31;;;5.72;100.00
54262;BME280;40174;52.364;6.452;2022-12-07T13:00:35;101244.03;;;5.60;100.00
54262;BME280;40174;52.364;6.452;2022-12-07T13:03:01;101238.19;;;5.55;100.00
54262;BME280;40174;52.364;6.452;2022-12-07T13:05:30;101239.25;;;5.51;100.00
54262;BME280;40174;52.364;6.452;2022-12-07T13:07:59;101222.16;;;5.44;100.00
54262;BME280;40174;52.364;6.452;2022-12-07T13:10:40;101221.47;;;5.40;100.00
54262;BME280;40174;52.364;6.452;2022-12-07T13:13:33;101220.88;;;5.35;100.00
54262;BME280;40174;52.364;6.452;2022-12-07T13:16:39;101217.41;;;5.34;100.00
54262;BME280;40174;52.364;6.452;2022-12-07T13:22:39;101203.53;;;5.32;100.00
54262;BME280;40174;52.364;6.452;2022-12-07T13:25:09;101197.84;;;5.24;100.00